Site:       
  Group:  
  From:      To:        
   
Sensor Name: Furnace      Latitude:-9.57320000 , Longitude:53.92290000
Please click on the Table Headers to view a Graph of the Observations.
TimeMax. Temp. (°C)Min. Temp. (°C)Mean Temp. (°C)Tot. Rain (mm)Mean Wind (kn)Max Gust (kn)Solar Rad. (J\cm2)Humidity (%)Atmos. Press. (mb)Temp. 5cm (°C)Temp. 10cm (°C)Temp. 20cm (°C)Temp. 30cm (°C)Temp. 50cm (°C)Temp. 100cm (°C)Grass Min. (°C)
29/03/2020 23:00:004.30 3.00 3.70 0.00 6.10 13.40 0.00 70.80 1046.30 -999.00 -999.00 7.60 -999.00 7.40 7.50 -999.00
29/03/2020 22:00:004.40 3.30 3.80 0.00 7.80 15.70 0.00 71.00 1046.20 -999.00 -999.00 7.80 -999.00 7.40 7.50 -999.00
29/03/2020 21:00:004.80 3.50 4.10 0.00 8.70 17.60 0.00 70.70 1046.20 -999.00 -999.00 8.10 -999.00 7.40 7.50 -999.00
29/03/2020 20:00:005.30 4.60 4.90 0.00 13.30 23.60 0.30 64.70 1045.90 -999.00 -999.00 8.20 -999.00 7.40 7.50 -999.00
29/03/2020 19:00:006.00 5.20 5.60 0.00 12.50 26.40 11.00 60.10 1045.70 -999.00 -999.00 8.20 -999.00 7.40 7.50 -999.00
29/03/2020 18:00:006.60 6.00 6.30 0.00 9.90 20.70 78.00 55.60 1045.80 -999.00 -999.00 8.10 -999.00 7.40 7.50 -999.00
29/03/2020 17:00:007.10 6.60 6.80 0.00 10.80 22.10 137.40 52.60 1046.00 -999.00 -999.00 7.80 -999.00 7.40 7.50 -999.00
29/03/2020 16:00:007.40 6.90 7.10 0.00 10.80 20.70 183.00 49.70 1046.30 -999.00 -999.00 7.50 -999.00 7.40 7.50 -999.00
29/03/2020 15:00:007.50 6.90 7.20 0.00 10.80 20.50 217.20 50.50 1046.20 -999.00 -999.00 7.20 -999.00 7.40 7.50 -999.00
29/03/2020 14:00:007.30 6.40 6.90 0.00 10.30 19.30 201.50 52.10 1046.50 -999.00 -999.00 6.80 -999.00 7.40 7.50 -999.00
29/03/2020 13:00:007.50 6.20 6.80 0.00 8.60 21.30 167.00 50.80 1046.80 -999.00 -999.00 6.50 -999.00 7.40 7.40 -999.00
29/03/2020 12:00:007.20 6.00 6.60 0.00 8.10 16.90 194.40 49.90 1046.80 -999.00 -999.00 6.20 -999.00 7.50 7.40 -999.00
29/03/2020 11:00:007.20 6.30 6.70 0.00 7.60 15.20 204.00 48.90 1046.80 -999.00 -999.00 6.00 -999.00 7.50 7.40 -999.00
29/03/2020 10:00:006.40 5.40 5.90 0.00 9.10 17.80 169.60 50.80 1046.90 -999.00 -999.00 6.00 -999.00 7.50 7.40 -999.00
29/03/2020 09:00:005.50 4.40 5.00 0.00 8.50 16.30 112.30 61.80 1046.70 -999.00 -999.00 6.10 -999.00 7.50 7.40 -999.00
29/03/2020 08:00:004.40 2.90 3.70 0.00 4.50 10.50 49.20 68.40 1046.30 -999.00 -999.00 6.30 -999.00 7.60 7.40 -999.00
29/03/2020 07:00:002.90 2.20 2.60 0.00 4.90 10.60 6.60 70.00 1045.50 -999.00 -999.00 6.50 -999.00 7.60 7.40 -999.00
29/03/2020 06:00:002.90 2.20 2.60 0.00 5.00 9.60 0.00 70.40 1044.90 -999.00 -999.00 6.80 -999.00 7.60 7.40 -999.00
29/03/2020 05:00:003.50 2.80 3.20 0.00 5.10 10.60 0.00 67.30 1044.30 -999.00 -999.00 7.00 -999.00 7.60 7.40 -999.00
29/03/2020 04:00:004.20 3.50 3.90 0.00 6.00 13.50 0.00 62.90 1044.00 -999.00 -999.00 7.20 -999.00 7.60 7.40 -999.00
29/03/2020 03:00:004.80 4.10 4.40 0.00 6.70 13.70 0.00 60.50 1043.50 -999.00 -999.00 7.40 -999.00 7.60 7.40 -999.00
29/03/2020 02:00:005.60 4.60 5.10 0.00 7.40 14.00 0.00 59.50 1043.00 -999.00 -999.00 7.60 -999.00 7.70 7.40 -999.00
29/03/2020 01:00:006.30 5.10 5.70 0.00 7.10 16.30 0.00 58.70 1042.40 -999.00 -999.00 7.80 -999.00 7.60 7.40 -999.00
29/03/2020 00:00:006.90 6.30 6.60 0.00 7.80 18.10 0.00 59.20 1041.80 6.90 -999.00 8.00 8.00 7.60 7.40 -999.00
28/03/2020 23:00:006.80 6.50 6.70 0.00 11.40 21.90 0.00 65.60 1040.70 7.10 -999.00 8.20 8.00 7.60 7.40 -999.00
28/03/2020 22:00:006.80 4.60 5.70 0.00 13.30 25.40 0.00 69.40 1040.10 7.30 -999.00 8.40 8.10 7.60 7.40 -999.00